sensor_id;sensor_type;location;lat;lon;timestamp;temperature;humidity
37340;DHT22;23223;51.006;7.610;2022-09-27T00:00:04;10.40;99.90
37340;DHT22;23223;51.006;7.610;2022-09-27T00:02:30;10.40;99.90
37340;DHT22;23223;51.006;7.610;2022-09-27T00:04:55;10.50;99.90
37340;DHT22;23223;51.006;7.610;2022-09-27T00:07:22;10.60;99.90
37340;DHT22;23223;51.006;7.610;2022-09-27T00:09:48;10.70;99.90
37340;DHT22;23223;51.006;7.610;2022-09-27T00:12:13;10.70;99.90
37340;DHT22;23223;51.006;7.610;2022-09-27T00:14:39;10.70;99.90
37340;DHT22;23223;51.006;7.610;2022-09-27T00:17:04;10.50;99.90
37340;DHT22;23223;51.006;7.610;2022-09-27T00:19:30;10.60;99.90
37340;DHT22;23223;51.006;7.610;2022-09-27T00:21:56;10.60;99.90
37340;DHT22;23223;51.006;7.610;2022-09-27T00:24:22;10.70;99.90
37340;DHT22;23223;51.006;7.610;2022-09-27T00:26:48;10.60;99.90
37340;DHT22;23223;51.006;7.610;2022-09-27T00:29:15;10.50;99.90
37340;DHT22;23223;51.006;7.610;2022-09-27T00:31:42;10.40;99.90
37340;DHT22;23223;51.006;7.610;2022-09-27T00:34:15;10.30;99.90
37340;DHT22;23223;51.006;7.610;2022-09-27T00:36:42;10.30;99.90
37340;DHT22;23223;51.006;7.610;2022-09-27T00:39:08;10.30;99.90
37340;DHT22;23223;51.006;7.610;2022-09-27T00:41:35;10.30;99.90
37340;DHT22;23223;51.006;7.610;2022-09-27T00:44:04;10.40;99.90
37340;DHT22;23223;51.006;7.610;2022-09-27T00:54:46;10.70;99.90
37340;DHT22;23223;51.006;7.610;2022-09-27T00:57:13;10.70;99.90
37340;DHT22;23223;51.006;7.610;2022-09-27T00:59:42;10.70;99.90
37340;DHT22;23223;51.006;7.610;2022-09-27T01:02:10;10.70;99.90
37340;DHT22;23223;51.006;7.610;2022-09-27T01:04:38;10.70;99.90
37340;DHT22;23223;51.006;7.610;2022-09-27T01:07:04;10.50;99.90
37340;DHT22;23223;51.006;7.610;2022-09-27T01:09:29;10.50;99.90
37340;DHT22;23223;51.006;7.610;2022-09-27T01:12:32;10.40;99.90
37340;DHT22;23223;51.006;7.610;2022-09-27T01:18:06;10.30;99.90
37340;DHT22;23223;51.006;7.610;2022-09-27T01:20:44;10.20;99.90
37340;DHT22;23223;51.006;7.610;2022-09-27T01:23:45;10.10;99.90
37340;DHT22;23223;51.006;7.610;2022-09-27T01:34:52;10.50;99.90
37340;DHT22;23223;51.006;7.610;2022-09-27T01:37:47;10.60;99.90
37340;DHT22;23223;51.006;7.610;2022-09-27T01:43:14;10.70;99.90
37340;DHT22;23223;51.006;7.610;2022-09-27T01:45:47;10.70;99.90
37340;DHT22;23223;51.006;7.610;2022-09-27T01:48:23;10.60;99.90
37340;DHT22;23223;51.006;7.610;2022-09-27T01:53:53;10.30;99.90
37340;DHT22;23223;51.006;7.610;2022-09-27T01:56:25;10.40;99.90
37340;DHT22;23223;51.006;7.610;2022-09-27T01:59:13;10.40;99.90
37340;DHT22;23223;51.006;7.610;2022-09-27T02:01:42;10.40;99.90
37340;DHT22;23223;51.006;7.610;2022-09-27T02:04:12;10.30;99.90
37340;DHT22;23223;51.006;7.610;2022-09-27T02:06:43;10.50;99.90
37340;DHT22;23223;51.006;7.610;2022-09-27T02:09:23;10.50;99.90
37340;DHT22;23223;51.006;7.610;2022-09-27T02:11:54;10.50;99.90
37340;DHT22;23223;51.006;7.610;2022-09-27T02:14:26;10.50;99.90
37340;DHT22;23223;51.006;7.610;2022-09-27T02:16:59;10.30;99.90
37340;DHT22;23223;51.006;7.610;2022-09-27T02:19:44;10.10;99.90
37340;DHT22;23223;51.006;7.610;2022-09-27T02:22:37;9.90;99.90
37340;DHT22;23223;51.006;7.610;2022-09-27T02:28:13;10.20;99.90
37340;DHT22;23223;51.006;7.610;2022-09-27T02:30:42;10.30;99.90
37340;DHT22;23223;51.006;7.610;2022-09-27T02:33:07;10.30;99.90
37340;DHT22;23223;51.006;7.610;2022-09-27T02:35:34;10.20;99.90
37340;DHT22;23223;51.006;7.610;2022-09-27T02:38:02;10.10;99.90
37340;DHT22;23223;51.006;7.610;2022-09-27T02:40:42;10.20;99.90
37340;DHT22;23223;51.006;7.610;2022-09-27T02:43:08;10.20;99.90
37340;DHT22;23223;51.006;7.610;2022-09-27T02:51:49;10.40;99.90
37340;DHT22;23223;51.006;7.610;2022-09-27T02:54:43;10.50;99.90
37340;DHT22;23223;51.006;7.610;2022-09-27T03:00:20;10.50;99.90
37340;DHT22;23223;51.006;7.610;2022-09-27T03:03:08;10.50;99.90
37340;DHT22;23223;51.006;7.610;2022-09-27T03:05:55;10.40;99.90
37340;DHT22;23223;51.006;7.610;2022-09-27T03:08:23;10.40;99.90
37340;DHT22;23223;51.006;7.610;2022-09-27T03:10:49;10.40;99.90
37340;DHT22;23223;51.006;7.610;2022-09-27T03:13:15;10.30;99.90
37340;DHT22;23223;51.006;7.610;2022-09-27T03:15:40;10.20;99.90
37340;DHT22;23223;51.006;7.610;2022-09-27T03:18:06;10.10;99.90
37340;DHT22;23223;51.006;7.610;2022-09-27T03:20:31;10.20;99.90
37340;DHT22;23223;51.006;7.610;2022-09-27T03:22:57;10.30;99.90
37340;DHT22;23223;51.006;7.610;2022-09-27T03:25:22;10.20;99.90
37340;DHT22;23223;51.006;7.610;2022-09-27T03:27:48;10.00;99.90
37340;DHT22;23223;51.006;7.610;2022-09-27T03:30:14;9.90;99.90
37340;DHT22;23223;51.006;7.610;2022-09-27T03:32:44;9.90;99.90
37340;DHT22;23223;51.006;7.610;2022-09-27T03:35:10;10.00;99.90
37340;DHT22;23223;51.006;7.610;2022-09-27T03:37:36;10.00;99.90
37340;DHT22;23223;51.006;7.610;2022-09-27T03:40:03;10.10;99.90
37340;DHT22;23223;51.006;7.610;2022-09-27T03:42:28;10.10;99.90
37340;DHT22;23223;51.006;7.610;2022-09-27T03:44:54;10.10;99.90
37340;DHT22;23223;51.006;7.610;2022-09-27T03:47:20;10.00;99.90
37340;DHT22;23223;51.006;7.610;2022-09-27T03:49:48;10.00;99.90
37340;DHT22;23223;51.006;7.610;2022-09-27T03:52:14;10.00;99.90
37340;DHT22;23223;51.006;7.610;2022-09-27T03:54:40;9.90;99.90
37340;DHT22;23223;51.006;7.610;2022-09-27T03:57:07;9.90;99.90
37340;DHT22;23223;51.006;7.610;2022-09-27T03:59:32;10.00;99.90
37340;DHT22;23223;51.006;7.610;2022-09-27T04:01:58;10.10;99.90
37340;DHT22;23223;51.006;7.610;2022-09-27T04:04:23;10.10;99.90
37340;DHT22;23223;51.006;7.610;2022-09-27T04:06:49;10.00;99.90
37340;DHT22;23223;51.006;7.610;2022-09-27T04:09:15;10.00;99.90
37340;DHT22;23223;51.006;7.610;2022-09-27T04:11:40;10.00;99.90
37340;DHT22;23223;51.006;7.610;2022-09-27T04:14:06;9.90;99.90
37340;DHT22;23223;51.006;7.610;2022-09-27T04:16:33;9.90;99.90
37340;DHT22;23223;51.006;7.610;2022-09-27T04:18:59;9.90;99.90
37340;DHT22;23223;51.006;7.610;2022-09-27T04:21:26;10.10;99.90
37340;DHT22;23223;51.006;7.610;2022-09-27T04:23:51;10.30;99.90
37340;DHT22;23223;51.006;7.610;2022-09-27T04:26:17;10.30;99.90
37340;DHT22;23223;51.006;7.610;2022-09-27T04:28:43;10.40;99.90
37340;DHT22;23223;51.006;7.610;2022-09-27T04:31:09;10.30;99.90
37340;DHT22;23223;51.006;7.610;2022-09-27T04:33:34;10.30;99.90
37340;DHT22;23223;51.006;7.610;2022-09-27T04:36:00;10.30;99.90
37340;DHT22;23223;51.006;7.610;2022-09-27T04:38:44;10.30;99.90
37340;DHT22;23223;51.006;7.610;2022-09-27T04:41:09;10.40;99.90
37340;DHT22;23223;51.006;7.610;2022-09-27T04:43:35;10.30;99.90
37340;DHT22;23223;51.006;7.610;2022-09-27T04:46:01;10.30;99.90
37340;DHT22;23223;51.006;7.610;2022-09-27T04:48:26;10.30;99.90
37340;DHT22;23223;51.006;7.610;2022-09-27T04:50:56;10.20;99.90
37340;DHT22;23223;51.006;7.610;2022-09-27T04:53:22;10.10;99.90
37340;DHT22;23223;51.006;7.610;2022-09-27T04:55:48;10.00;99.90
37340;DHT22;23223;51.006;7.610;2022-09-27T04:58:14;10.10;99.90
37340;DHT22;23223;51.006;7.610;2022-09-27T05:00:40;10.10;99.90
37340;DHT22;23223;51.006;7.610;2022-09-27T05:03:07;10.10;99.90
37340;DHT22;23223;51.006;7.610;2022-09-27T05:05:33;9.90;99.90
37340;DHT22;23223;51.006;7.610;2022-09-27T05:07:58;10.00;99.90
37340;DHT22;23223;51.006;7.610;2022-09-27T05:10:24;10.00;99.90
37340;DHT22;23223;51.006;7.610;2022-09-27T05:12:50;10.10;99.90
37340;DHT22;23223;51.006;7.610;2022-09-27T05:15:15;10.10;99.90
37340;DHT22;23223;51.006;7.610;2022-09-27T05:17:41;10.00;99.90
37340;DHT22;23223;51.006;7.610;2022-09-27T05:20:06;9.90;99.90
37340;DHT22;23223;51.006;7.610;2022-09-27T05:22:34;9.90;99.90
37340;DHT22;23223;51.006;7.610;2022-09-27T05:24:59;9.80;99.90
37340;DHT22;23223;51.006;7.610;2022-09-27T05:27:25;9.80;99.90
37340;DHT22;23223;51.006;7.610;2022-09-27T05:29:50;9.80;99.90
37340;DHT22;23223;51.006;7.610;2022-09-27T05:32:16;9.80;99.90
37340;DHT22;23223;51.006;7.610;2022-09-27T05:34:41;9.80;99.90
37340;DHT22;23223;51.006;7.610;2022-09-27T05:37:07;9.90;99.90
37340;DHT22;23223;51.006;7.610;2022-09-27T05:39:33;9.80;99.90
37340;DHT22;23223;51.006;7.610;2022-09-27T05:41:58;9.70;99.90
37340;DHT22;23223;51.006;7.610;2022-09-27T05:44:24;9.70;99.90
37340;DHT22;23223;51.006;7.610;2022-09-27T05:46:50;9.70;99.90
37340;DHT22;23223;51.006;7.610;2022-09-27T05:49:16;9.80;99.90
37340;DHT22;23223;51.006;7.610;2022-09-27T05:51:41;9.80;99.90
37340;DHT22;23223;51.006;7.610;2022-09-27T05:54:07;9.80;99.90
37340;DHT22;23223;51.006;7.610;2022-09-27T05:56:33;9.80;99.90
37340;DHT22;23223;51.006;7.610;2022-09-27T05:58:58;9.70;99.90
37340;DHT22;23223;51.006;7.610;2022-09-27T06:01:24;9.70;99.90
37340;DHT22;23223;51.006;7.610;2022-09-27T06:03:51;9.70;99.90
37340;DHT22;23223;51.006;7.610;2022-09-27T06:06:18;9.80;99.90
37340;DHT22;23223;51.006;7.610;2022-09-27T06:08:43;9.80;99.90
37340;DHT22;23223;51.006;7.610;2022-09-27T06:11:11;9.70;99.90
37340;DHT22;23223;51.006;7.610;2022-09-27T06:13:39;9.70;99.90
37340;DHT22;23223;51.006;7.610;2022-09-27T06:16:07;9.80;99.90
37340;DHT22;23223;51.006;7.610;2022-09-27T06:18:34;9.70;99.90
37340;DHT22;23223;51.006;7.610;2022-09-27T06:21:00;9.70;99.90
37340;DHT22;23223;51.006;7.610;2022-09-27T06:23:27;9.70;99.90
37340;DHT22;23223;51.006;7.610;2022-09-27T06:25:53;9.70;99.90
37340;DHT22;23223;51.006;7.610;2022-09-27T06:28:20;9.70;99.90
37340;DHT22;23223;51.006;7.610;2022-09-27T06:30:47;9.80;99.90
37340;DHT22;23223;51.006;7.610;2022-09-27T06:33:16;9.70;99.90
37340;DHT22;23223;51.006;7.610;2022-09-27T06:35:42;9.60;99.90
37340;DHT22;23223;51.006;7.610;2022-09-27T06:38:11;9.70;99.90
37340;DHT22;23223;51.006;7.610;2022-09-27T06:40:37;9.60;99.90
37340;DHT22;23223;51.006;7.610;2022-09-27T06:43:07;9.60;99.90
37340;DHT22;23223;51.006;7.610;2022-09-27T06:45:34;9.60;99.90
37340;DHT22;23223;51.006;7.610;2022-09-27T06:48:01;9.60;99.90
37340;DHT22;23223;51.006;7.610;2022-09-27T06:50:28;9.70;99.90
37340;DHT22;23223;51.006;7.610;2022-09-27T06:52:54;9.70;99.90
37340;DHT22;23223;51.006;7.610;2022-09-27T06:55:20;9.80;99.90
37340;DHT22;23223;51.006;7.610;2022-09-27T06:57:46;9.90;99.90
37340;DHT22;23223;51.006;7.610;2022-09-27T07:00:30;9.90;99.90
37340;DHT22;23223;51.006;7.610;2022-09-27T07:02:57;9.80;99.90
37340;DHT22;23223;51.006;7.610;2022-09-27T07:05:27;9.70;99.90
37340;DHT22;23223;51.006;7.610;2022-09-27T07:07:57;9.70;99.90
37340;DHT22;23223;51.006;7.610;2022-09-27T07:10:24;9.70;99.90
37340;DHT22;23223;51.006;7.610;2022-09-27T07:12:50;9.60;99.90
37340;DHT22;23223;51.006;7.610;2022-09-27T07:15:16;9.50;99.90
37340;DHT22;23223;51.006;7.610;2022-09-27T07:17:42;9.60;99.90
37340;DHT22;23223;51.006;7.610;2022-09-27T07:20:08;9.70;99.90
37340;DHT22;23223;51.006;7.610;2022-09-27T07:22:41;9.70;99.90
37340;DHT22;23223;51.006;7.610;2022-09-27T07:25:08;9.70;99.90
37340;DHT22;23223;51.006;7.610;2022-09-27T07:27:34;9.70;99.90
37340;DHT22;23223;51.006;7.610;2022-09-27T07:30:00;9.70;99.90
37340;DHT22;23223;51.006;7.610;2022-09-27T07:32:25;9.80;99.90
37340;DHT22;23223;51.006;7.610;2022-09-27T07:34:51;9.90;99.90
37340;DHT22;23223;51.006;7.610;2022-09-27T07:37:17;9.80;99.90
37340;DHT22;23223;51.006;7.610;2022-09-27T07:39:43;9.80;99.90
37340;DHT22;23223;51.006;7.610;2022-09-27T07:42:09;9.70;99.90
37340;DHT22;23223;51.006;7.610;2022-09-27T07:44:34;9.40;99.90
37340;DHT22;23223;51.006;7.610;2022-09-27T07:47:00;9.50;99.90
37340;DHT22;23223;51.006;7.610;2022-09-27T07:49:26;9.60;99.90
37340;DHT22;23223;51.006;7.610;2022-09-27T07:51:51;9.50;99.90
37340;DHT22;23223;51.006;7.610;2022-09-27T07:54:17;9.70;99.90
37340;DHT22;23223;51.006;7.610;2022-09-27T07:56:44;9.80;99.90
37340;DHT22;23223;51.006;7.610;2022-09-27T07:59:10;9.90;99.90
37340;DHT22;23223;51.006;7.610;2022-09-27T08:01:35;9.70;99.90
37340;DHT22;23223;51.006;7.610;2022-09-27T08:04:01;9.70;99.90
37340;DHT22;23223;51.006;7.610;2022-09-27T08:06:26;9.70;99.90
37340;DHT22;23223;51.006;7.610;2022-09-27T08:08:52;9.80;99.90
37340;DHT22;23223;51.006;7.610;2022-09-27T08:11:19;9.90;99.90
37340;DHT22;23223;51.006;7.610;2022-09-27T08:13:46;9.80;99.90
37340;DHT22;23223;51.006;7.610;2022-09-27T08:16:14;9.90;99.90
37340;DHT22;23223;51.006;7.610;2022-09-27T08:18:39;9.80;99.90
37340;DHT22;23223;51.006;7.610;2022-09-27T08:21:05;9.90;99.90
37340;DHT22;23223;51.006;7.610;2022-09-27T08:23:30;9.90;99.90
37340;DHT22;23223;51.006;7.610;2022-09-27T08:25:56;9.90;99.90
37340;DHT22;23223;51.006;7.610;2022-09-27T08:28:24;9.80;99.90
37340;DHT22;23223;51.006;7.610;2022-09-27T08:30:50;9.80;99.90
37340;DHT22;23223;51.006;7.610;2022-09-27T08:33:16;9.90;99.90
37340;DHT22;23223;51.006;7.610;2022-09-27T08:35:42;9.90;99.90
37340;DHT22;23223;51.006;7.610;2022-09-27T08:38:08;10.00;99.90
37340;DHT22;23223;51.006;7.610;2022-09-27T08:40:54;10.10;99.90
37340;DHT22;23223;51.006;7.610;2022-09-27T08:43:35;10.10;99.90
37340;DHT22;23223;51.006;7.610;2022-09-27T08:48:37;10.30;99.90
37340;DHT22;23223;51.006;7.610;2022-09-27T08:51:05;10.40;99.90
37340;DHT22;23223;51.006;7.610;2022-09-27T08:53:35;10.30;99.90
37340;DHT22;23223;51.006;7.610;2022-09-27T08:56:02;10.30;99.90
37340;DHT22;23223;51.006;7.610;2022-09-27T08:58:32;10.30;99.90
37340;DHT22;23223;51.006;7.610;2022-09-27T09:01:01;10.40;99.90
37340;DHT22;23223;51.006;7.610;2022-09-27T09:03:42;10.40;99.90
37340;DHT22;23223;51.006;7.610;2022-09-27T09:09:36;10.10;99.90
37340;DHT22;23223;51.006;7.610;2022-09-27T09:20:49;10.10;99.90
37340;DHT22;23223;51.006;7.610;2022-09-27T09:26:21;10.20;99.90
37340;DHT22;23223;51.006;7.610;2022-09-27T09:29:15;10.30;99.90
37340;DHT22;23223;51.006;7.610;2022-09-27T09:31:57;10.20;99.90
37340;DHT22;23223;51.006;7.610;2022-09-27T09:34:30;10.20;99.90
37340;DHT22;23223;51.006;7.610;2022-09-27T09:37:04;10.30;99.90
37340;DHT22;23223;51.006;7.610;2022-09-27T09:39:54;10.20;99.90
37340;DHT22;23223;51.006;7.610;2022-09-27T09:44:57;10.20;99.90
37340;DHT22;23223;51.006;7.610;2022-09-27T09:47:40;10.30;99.90
37340;DHT22;23223;51.006;7.610;2022-09-27T09:50:19;10.30;99.90
37340;DHT22;23223;51.006;7.610;2022-09-27T09:53:10;10.40;99.90
37340;DHT22;23223;51.006;7.610;2022-09-27T09:55:39;10.60;99.90
37340;DHT22;23223;51.006;7.610;2022-09-27T10:00:47;10.40;99.90
37340;DHT22;23223;51.006;7.610;2022-09-27T10:03:15;10.50;99.90
37340;DHT22;23223;51.006;7.610;2022-09-27T10:05:43;10.60;99.90
37340;DHT22;23223;51.006;7.610;2022-09-27T10:08:20;10.70;99.90
37340;DHT22;23223;51.006;7.610;2022-09-27T10:10:46;10.90;99.90
37340;DHT22;23223;51.006;7.610;2022-09-27T10:13:20;11.10;99.90
37340;DHT22;23223;51.006;7.610;2022-09-27T10:16:08;11.20;99.90
37340;DHT22;23223;51.006;7.610;2022-09-27T10:18:38;11.30;99.90
37340;DHT22;23223;51.006;7.610;2022-09-27T10:21:18;11.30;99.90
37340;DHT22;23223;51.006;7.610;2022-09-27T10:26:29;11.30;99.90
37340;DHT22;23223;51.006;7.610;2022-09-27T10:28:55;11.30;99.90
37340;DHT22;23223;51.006;7.610;2022-09-27T10:31:21;11.30;99.90
37340;DHT22;23223;51.006;7.610;2022-09-27T10:36:29;11.10;99.90
37340;DHT22;23223;51.006;7.610;2022-09-27T10:39:05;11.10;99.90
37340;DHT22;23223;51.006;7.610;2022-09-27T10:41:33;11.30;99.90
37340;DHT22;23223;51.006;7.610;2022-09-27T10:46:48;11.40;99.90
37340;DHT22;23223;51.006;7.610;2022-09-27T10:49:19;11.30;99.90
37340;DHT22;23223;51.006;7.610;2022-09-27T10:51:51;11.20;99.90
37340;DHT22;23223;51.006;7.610;2022-09-27T10:54:22;11.30;99.90
37340;DHT22;23223;51.006;7.610;2022-09-27T10:56:58;11.40;99.90
37340;DHT22;23223;51.006;7.610;2022-09-27T10:59:24;11.20;99.90
37340;DHT22;23223;51.006;7.610;2022-09-27T11:01:51;11.30;99.90
37340;DHT22;23223;51.006;7.610;2022-09-27T11:04:36;11.20;99.90
37340;DHT22;23223;51.006;7.610;2022-09-27T11:07:15;11.30;99.90
37340;DHT22;23223;51.006;7.610;2022-09-27T11:09:52;11.20;99.90
37340;DHT22;23223;51.006;7.610;2022-09-27T11:12:20;11.30;99.90
37340;DHT22;23223;51.006;7.610;2022-09-27T11:14:56;11.40;99.90
37340;DHT22;23223;51.006;7.610;2022-09-27T11:23:15;12.30;99.90
37340;DHT22;23223;51.006;7.610;2022-09-27T11:26:07;13.20;99.90
37340;DHT22;23223;51.006;7.610;2022-09-27T11:29:03;13.70;99.90
37340;DHT22;23223;51.006;7.610;2022-09-27T11:31:39;13.50;99.90
37340;DHT22;23223;51.006;7.610;2022-09-27T11:37:01;13.90;99.90
37340;DHT22;23223;51.006;7.610;2022-09-27T11:39:42;13.90;99.90
37340;DHT22;23223;51.006;7.610;2022-09-27T11:45:11;14.30;99.90
37340;DHT22;23223;51.006;7.610;2022-09-27T11:50:29;13.30;99.90
37340;DHT22;23223;51.006;7.610;2022-09-27T11:55:36;12.60;99.90
37340;DHT22;23223;51.006;7.610;2022-09-27T12:01:08;12.30;99.90
37340;DHT22;23223;51.006;7.610;2022-09-27T12:06:24;12.30;99.90
37340;DHT22;23223;51.006;7.610;2022-09-27T12:09:02;12.70;99.90
37340;DHT22;23223;51.006;7.610;2022-09-27T12:11:37;13.00;99.90
37340;DHT22;23223;51.006;7.610;2022-09-27T12:16:43;13.10;99.90
37340;DHT22;23223;51.006;7.610;2022-09-27T12:19:18;12.90;99.90
37340;DHT22;23223;51.006;7.610;2022-09-27T12:21:46;12.40;99.90
37340;DHT22;23223;51.006;7.610;2022-09-27T12:24:30;11.90;99.90
37340;DHT22;23223;51.006;7.610;2022-09-27T12:27:02;11.60;99.90
37340;DHT22;23223;51.006;7.610;2022-09-27T12:29:33;11.40;99.90
37340;DHT22;23223;51.006;7.610;2022-09-27T12:37:30;12.00;99.90
37340;DHT22;23223;51.006;7.610;2022-09-27T12:40:29;12.20;99.90
37340;DHT22;23223;51.006;7.610;2022-09-27T12:43:01;12.40;99.90
37340;DHT22;23223;51.006;7.610;2022-09-27T12:45:42;12.60;99.90
37340;DHT22;23223;51.006;7.610;2022-09-27T12:50:52;12.90;99.90
37340;DHT22;23223;51.006;7.610;2022-09-27T12:53:25;12.90;99.90
37340;DHT22;23223;51.006;7.610;2022-09-27T13:13:04;12.30;99.90
37340;DHT22;23223;51.006;7.610;2022-09-27T13:15:36;12.20;99.90
37340;DHT22;23223;51.006;7.610;2022-09-27T13:18:06;12.00;99.90
37340;DHT22;23223;51.006;7.610;2022-09-27T13:20:50;11.90;99.90
37340;DHT22;23223;51.006;7.610;2022-09-27T13:25:56;11.50;99.90
37340;DHT22;23223;51.006;7.610;2022-09-27T13:33:50;11.50;99.90
37340;DHT22;23223;51.006;7.610;2022-09-27T13:53:38;10.70;99.90
37340;DHT22;23223;51.006;7.610;2022-09-27T13:55:45;10.50;99.90
37340;DHT22;23223;51.006;7.610;2022-09-27T14:01:02;10.50;99.90
37340;DHT22;23223;51.006;7.610;2022-09-27T14:03:34;10.40;99.90
37340;DHT22;23223;51.006;7.610;2022-09-27T14:06:04;10.30;99.90
37340;DHT22;23223;51.006;7.610;2022-09-27T14:08:49;10.20;99.90
37340;DHT22;23223;51.006;7.610;2022-09-27T14:11:29;10.20;99.90
37340;DHT22;23223;51.006;7.610;2022-09-27T14:13:58;10.10;99.90
37340;DHT22;23223;51.006;7.610;2022-09-27T14:16:29;10.20;99.90
37340;DHT22;23223;51.006;7.610;2022-09-27T14:18:57;10.40;99.90
37340;DHT22;23223;51.006;7.610;2022-09-27T14:27:03;10.60;99.90
37340;DHT22;23223;51.006;7.610;2022-09-27T14:29:31;10.70;99.90
37340;DHT22;23223;51.006;7.610;2022-09-27T14:32:09;10.60;99.90
37340;DHT22;23223;51.006;7.610;2022-09-27T14:34:35;10.60;99.90
37340;DHT22;23223;51.006;7.610;2022-09-27T14:37:01;10.50;99.90
37340;DHT22;23223;51.006;7.610;2022-09-27T14:39:52;10.40;99.90
37340;DHT22;23223;51.006;7.610;2022-09-27T14:42:20;10.60;99.90
37340;DHT22;23223;51.006;7.610;2022-09-27T14:44:47;10.60;99.90
37340;DHT22;23223;51.006;7.610;2022-09-27T14:47:21;10.50;99.90
37340;DHT22;23223;51.006;7.610;2022-09-27T14:49:56;10.50;99.90
37340;DHT22;23223;51.006;7.610;2022-09-27T14:52:26;10.50;99.90
37340;DHT22;23223;51.006;7.610;2022-09-27T14:54:59;10.50;99.90
37340;DHT22;23223;51.006;7.610;2022-09-27T14:57:28;10.50;99.90
37340;DHT22;23223;51.006;7.610;2022-09-27T14:59:57;10.50;99.90
37340;DHT22;23223;51.006;7.610;2022-09-27T15:02:25;10.80;99.90
37340;DHT22;23223;51.006;7.610;2022-09-27T15:04:52;10.80;99.90
37340;DHT22;23223;51.006;7.610;2022-09-27T15:07:19;10.80;99.90
37340;DHT22;23223;51.006;7.610;2022-09-27T15:09:46;10.80;99.90
37340;DHT22;23223;51.006;7.610;2022-09-27T15:12:17;10.90;99.90
37340;DHT22;23223;51.006;7.610;2022-09-27T15:14:47;10.80;99.90
37340;DHT22;23223;51.006;7.610;2022-09-27T15:17:16;10.80;99.90
37340;DHT22;23223;51.006;7.610;2022-09-27T15:19:59;10.80;99.90
37340;DHT22;23223;51.006;7.610;2022-09-27T15:22:42;10.80;99.90
37340;DHT22;23223;51.006;7.610;2022-09-27T15:27:49;10.90;99.90
37340;DHT22;23223;51.006;7.610;2022-09-27T15:30:17;10.90;99.90
37340;DHT22;23223;51.006;7.610;2022-09-27T15:32:48;11.00;99.90
37340;DHT22;23223;51.006;7.610;2022-09-27T15:35:23;10.90;99.90
37340;DHT22;23223;51.006;7.610;2022-09-27T15:37:49;10.80;99.90
37340;DHT22;23223;51.006;7.610;2022-09-27T15:42:58;10.60;99.90
37340;DHT22;23223;51.006;7.610;2022-09-27T15:45:33;10.60;99.90
37340;DHT22;23223;51.006;7.610;2022-09-27T15:48:19;10.70;99.90
37340;DHT22;23223;51.006;7.610;2022-09-27T15:50:45;10.60;99.90
37340;DHT22;23223;51.006;7.610;2022-09-27T15:56:02;10.60;99.90
37340;DHT22;23223;51.006;7.610;2022-09-27T15:58:28;10.50;99.90
37340;DHT22;23223;51.006;7.610;2022-09-27T16:00:56;10.40;99.90
37340;DHT22;23223;51.006;7.610;2022-09-27T16:03:24;10.30;99.90
37340;DHT22;23223;51.006;7.610;2022-09-27T16:05:50;10.30;99.90
37340;DHT22;23223;51.006;7.610;2022-09-27T16:08:16;10.30;99.90
37340;DHT22;23223;51.006;7.610;2022-09-27T16:10:46;10.50;99.90
37340;DHT22;23223;51.006;7.610;2022-09-27T16:13:13;10.60;99.90
37340;DHT22;23223;51.006;7.610;2022-09-27T16:15:38;10.60;99.90
37340;DHT22;23223;51.006;7.610;2022-09-27T16:18:04;10.40;99.90
37340;DHT22;23223;51.006;7.610;2022-09-27T16:20:30;10.50;99.90
37340;DHT22;23223;51.006;7.610;2022-09-27T16:22:56;10.40;99.90
37340;DHT22;23223;51.006;7.610;2022-09-27T16:25:23;10.30;99.90
37340;DHT22;23223;51.006;7.610;2022-09-27T16:27:49;10.30;99.90
37340;DHT22;23223;51.006;7.610;2022-09-27T16:30:15;10.40;99.90
37340;DHT22;23223;51.006;7.610;2022-09-27T16:32:46;10.20;99.90
37340;DHT22;23223;51.006;7.610;2022-09-27T16:35:13;10.10;99.90
37340;DHT22;23223;51.006;7.610;2022-09-27T16:37:39;10.10;99.90
37340;DHT22;23223;51.006;7.610;2022-09-27T16:40:06;9.90;99.90
37340;DHT22;23223;51.006;7.610;2022-09-27T16:42:33;9.80;99.90
37340;DHT22;23223;51.006;7.610;2022-09-27T16:45:00;9.70;99.90
37340;DHT22;23223;51.006;7.610;2022-09-27T16:47:27;9.60;99.90
37340;DHT22;23223;51.006;7.610;2022-09-27T16:49:52;9.50;99.90
37340;DHT22;23223;51.006;7.610;2022-09-27T16:52:37;9.50;99.90
37340;DHT22;23223;51.006;7.610;2022-09-27T16:55:03;9.40;99.90
37340;DHT22;23223;51.006;7.610;2022-09-27T16:57:28;9.40;99.90
37340;DHT22;23223;51.006;7.610;2022-09-27T16:59:54;9.40;99.90
37340;DHT22;23223;51.006;7.610;2022-09-27T17:02:23;9.40;99.90
37340;DHT22;23223;51.006;7.610;2022-09-27T17:04:49;9.40;99.90
37340;DHT22;23223;51.006;7.610;2022-09-27T17:07:15;9.20;99.90
37340;DHT22;23223;51.006;7.610;2022-09-27T17:09:41;9.10;99.90
37340;DHT22;23223;51.006;7.610;2022-09-27T17:12:07;9.10;99.90
37340;DHT22;23223;51.006;7.610;2022-09-27T17:14:33;8.90;99.90
37340;DHT22;23223;51.006;7.610;2022-09-27T17:16:58;8.80;99.90
37340;DHT22;23223;51.006;7.610;2022-09-27T17:19:24;8.80;99.90
37340;DHT22;23223;51.006;7.610;2022-09-27T17:21:49;8.70;99.90
37340;DHT22;23223;51.006;7.610;2022-09-27T17:24:16;8.60;99.90
37340;DHT22;23223;51.006;7.610;2022-09-27T17:26:42;8.60;99.90
37340;DHT22;23223;51.006;7.610;2022-09-27T17:29:10;8.60;99.90
37340;DHT22;23223;51.006;7.610;2022-09-27T17:31:37;8.60;99.90
37340;DHT22;23223;51.006;7.610;2022-09-27T17:34:04;8.50;99.90
37340;DHT22;23223;51.006;7.610;2022-09-27T17:36:31;8.60;99.90
37340;DHT22;23223;51.006;7.610;2022-09-27T17:39:02;8.60;99.90
37340;DHT22;23223;51.006;7.610;2022-09-27T17:41:28;8.60;99.90
37340;DHT22;23223;51.006;7.610;2022-09-27T17:43:57;8.60;99.90
37340;DHT22;23223;51.006;7.610;2022-09-27T17:46:28;8.60;99.90
37340;DHT22;23223;51.006;7.610;2022-09-27T17:48:54;8.60;99.90
37340;DHT22;23223;51.006;7.610;2022-09-27T17:51:39;8.70;99.90
37340;DHT22;23223;51.006;7.610;2022-09-27T17:54:07;8.70;99.90
37340;DHT22;23223;51.006;7.610;2022-09-27T17:56:40;8.80;99.90
37340;DHT22;23223;51.006;7.610;2022-09-27T17:59:07;8.90;99.90
37340;DHT22;23223;51.006;7.610;2022-09-27T18:01:33;8.90;99.90
37340;DHT22;23223;51.006;7.610;2022-09-27T18:04:01;8.80;99.90
37340;DHT22;23223;51.006;7.610;2022-09-27T18:06:28;8.80;99.90
37340;DHT22;23223;51.006;7.610;2022-09-27T18:08:54;8.80;99.90
37340;DHT22;23223;51.006;7.610;2022-09-27T18:11:22;8.80;99.90
37340;DHT22;23223;51.006;7.610;2022-09-27T18:13:56;8.70;99.90
37340;DHT22;23223;51.006;7.610;2022-09-27T18:16:25;8.80;99.90
37340;DHT22;23223;51.006;7.610;2022-09-27T18:18:57;8.80;99.90
37340;DHT22;23223;51.006;7.610;2022-09-27T18:21:23;8.80;99.90
37340;DHT22;23223;51.006;7.610;2022-09-27T18:23:55;8.80;99.90
37340;DHT22;23223;51.006;7.610;2022-09-27T18:26:22;8.80;99.90
37340;DHT22;23223;51.006;7.610;2022-09-27T18:28:49;8.80;99.90
37340;DHT22;23223;51.006;7.610;2022-09-27T18:31:17;8.80;99.90
37340;DHT22;23223;51.006;7.610;2022-09-27T18:33:43;8.80;99.90